Ash Lake, Minnesota
Current Conditions -  °F | °C
As of 1:53 PM on Wednesday 28 Jan 2015 (Local Time) from KORB Reporting Station
Overcast Overcast  
Wind Chill: 18°   Ceiling: 700
Heat Index: 25°   Visibility: 10mi
Dew Point: 19°   Wind: 6mph
Humidity: 80%   Direction: 160°SSE
Pressure: 29.78"   Gusts: NA
Location:  48.1455°N, 92.8504°W
Report Text: KORB 281953Z AUTO 16005KT 10SM OVC007 M04/M07 A2978 RMK AO2
Loading
Personal Weather Stations






























Interactive Weather Map New forecast layout! Learn more

10-Day Weather Forecast

Advertisements
Track Severe Weather on mobile